createdAt,value
2023-05-22T00:00:23.415Z,21.90
2023-05-22T00:02:57.365Z,21.90
2023-05-22T00:05:25.605Z,21.90
2023-05-22T00:07:55.937Z,21.90
2023-05-22T00:10:42.629Z,21.80
2023-05-22T00:13:14.646Z,21.80
2023-05-22T00:15:43.388Z,21.80
2023-05-22T00:18:14.749Z,21.80
2023-05-22T00:20:54.251Z,21.80
2023-05-22T00:23:27.750Z,21.80
2023-05-22T00:25:58.566Z,21.70
2023-05-22T00:28:28.944Z,21.70
2023-05-22T00:31:05.170Z,21.70
2023-05-22T00:33:36.434Z,21.70
2023-05-22T00:36:10.710Z,21.60
2023-05-22T00:38:38.618Z,21.60
2023-05-22T00:41:12.766Z,21.60
2023-05-22T00:43:51.077Z,21.50
2023-05-22T00:46:21.525Z,21.50
2023-05-22T00:48:53.508Z,21.50
2023-05-22T00:51:22.325Z,21.30
2023-05-22T00:53:54.551Z,21.30
2023-05-22T00:56:22.940Z,21.20
2023-05-22T00:59:04.568Z,21.30
2023-05-22T01:01:41.069Z,21.20
2023-05-22T01:04:14.712Z,21.20
2023-05-22T01:06:42.784Z,21.20
2023-05-22T01:09:14.690Z,21.00
2023-05-22T01:12:00.810Z,21.10
2023-05-22T01:14:40.864Z,21.10
2023-05-22T01:17:23.513Z,21.10
2023-05-22T01:20:07.070Z,21.10
2023-05-22T01:23:08.738Z,21.10
2023-05-22T01:26:04.112Z,21.10
2023-05-22T01:28:57.035Z,21.00
2023-05-22T01:31:28.463Z,20.80
2023-05-22T01:34:03.455Z,20.80
2023-05-22T01:36:35.750Z,20.90
2023-05-22T01:39:07.432Z,21.00
2023-05-22T01:41:44.762Z,21.10
2023-05-22T01:44:12.679Z,21.00
2023-05-22T01:46:42.108Z,21.00
2023-05-22T01:49:12.433Z,21.00
2023-05-22T01:51:51.675Z,21.00
2023-05-22T01:54:28.095Z,21.00
2023-05-22T01:57:09.100Z,20.90
2023-05-22T01:59:45.421Z,20.90
2023-05-22T02:02:16.940Z,20.90
2023-05-22T02:04:59.481Z,21.00
2023-05-22T02:07:28.571Z,21.10
2023-05-22T02:09:57.733Z,21.10
2023-05-22T02:12:28.923Z,21.10
2023-05-22T02:14:59.017Z,21.10
2023-05-22T02:17:28.699Z,21.00
2023-05-22T02:19:56.719Z,20.90
2023-05-22T02:22:33.771Z,20.90
2023-05-22T02:25:04.116Z,20.90
2023-05-22T02:27:32.002Z,20.80
2023-05-22T02:29:59.889Z,20.80
2023-05-22T02:32:29.319Z,20.70
2023-05-22T02:35:10.464Z,20.70
2023-05-22T02:37:38.672Z,20.80
2023-05-22T02:40:07.679Z,20.70
2023-05-22T02:42:35.850Z,20.70
2023-05-22T02:45:04.166Z,20.70
2023-05-22T02:47:33.419Z,20.80
2023-05-22T02:50:03.704Z,20.80
2023-05-22T02:52:31.667Z,20.80
2023-05-22T02:54:59.586Z,20.80
2023-05-22T02:57:27.496Z,20.90
2023-05-22T03:00:11.456Z,20.90
2023-05-22T03:02:40.853Z,21.00
2023-05-22T03:05:09.836Z,21.00
2023-05-22T03:07:41.035Z,20.90
2023-05-22T03:10:16.150Z,20.80
2023-05-22T03:12:44.108Z,20.50
2023-05-22T03:15:12.599Z,20.50
2023-05-22T03:17:50.949Z,20.50
2023-05-22T03:20:18.908Z,20.50
2023-05-22T03:22:47.058Z,20.60
2023-05-22T03:25:15.114Z,20.60
2023-05-22T03:27:46.068Z,20.60
2023-05-22T03:30:25.658Z,20.70
2023-05-22T03:32:57.064Z,20.70
2023-05-22T03:35:25.567Z,20.60
2023-05-22T03:37:59.659Z,20.60
2023-05-22T03:40:30.658Z,20.40
2023-05-22T03:42:58.555Z,20.40
2023-05-22T03:45:32.174Z,20.40
2023-05-22T03:48:07.129Z,20.40
2023-05-22T03:50:35.122Z,20.40
2023-05-22T03:53:06.135Z,20.40
2023-05-22T03:55:36.813Z,20.40
2023-05-22T03:58:12.668Z,20.40
2023-05-22T04:00:42.648Z,20.40
2023-05-22T04:03:14.480Z,20.30
2023-05-22T04:05:42.451Z,20.30
2023-05-22T04:08:10.413Z,20.30
2023-05-22T04:10:38.733Z,20.30
2023-05-22T04:13:13.160Z,20.30
2023-05-22T04:15:43.602Z,20.40
2023-05-22T04:18:18.658Z,20.40
2023-05-22T04:20:46.559Z,20.50
2023-05-22T04:23:14.522Z,20.50
2023-05-22T04:25:48.072Z,20.50
2023-05-22T04:28:17.561Z,20.50
2023-05-22T04:30:45.742Z,20.50
2023-05-22T04:33:13.765Z,20.50
2023-05-22T04:35:44.203Z,20.40
2023-05-22T04:38:12.139Z,20.40
2023-05-22T04:40:43.582Z,20.40
2023-05-22T04:43:12.536Z,20.40
2023-05-22T04:45:42.209Z,20.30
2023-05-22T04:48:13.649Z,20.30
2023-05-22T04:50:46.354Z,20.30
2023-05-22T04:53:14.335Z,20.30
2023-05-22T04:55:46.023Z,20.20
2023-05-22T04:58:13.944Z,20.20
2023-05-22T05:00:42.145Z,20.20
2023-05-22T05:03:11.753Z,20.20
2023-05-22T05:05:39.762Z,20.30
2023-05-22T05:08:09.057Z,20.40
2023-05-22T05:10:37.071Z,20.40
2023-05-22T05:13:10.199Z,20.40
2023-05-22T05:15:38.121Z,20.30
2023-05-22T05:18:06.126Z,20.30
2023-05-22T05:20:37.485Z,20.30
2023-05-22T05:23:05.526Z,20.30
2023-05-22T05:25:38.645Z,20.30
2023-05-22T05:28:10.712Z,20.30
2023-05-22T05:30:42.223Z,20.30
2023-05-22T05:33:19.662Z,20.30
2023-05-22T05:35:57.908Z,20.30
2023-05-22T05:38:28.419Z,20.30
2023-05-22T05:40:57.705Z,20.40
2023-05-22T05:43:25.683Z,20.40
2023-05-22T05:45:57.204Z,20.40
2023-05-22T05:48:28.370Z,20.30
2023-05-22T05:51:07.713Z,20.40
2023-05-22T05:53:36.917Z,20.40
2023-05-22T05:56:09.868Z,20.40
2023-05-22T05:58:38.271Z,20.50
2023-05-22T06:01:09.124Z,20.50
2023-05-22T06:03:39.248Z,20.60
2023-05-22T06:06:10.676Z,20.60
2023-05-22T06:08:38.679Z,20.60
2023-05-22T06:11:06.605Z,20.60
2023-05-22T06:13:35.888Z,20.60
2023-05-22T06:16:06.408Z,20.70
2023-05-22T06:18:34.742Z,20.70
2023-05-22T06:21:05.802Z,20.70
2023-05-22T06:23:34.002Z,20.80
2023-05-22T06:26:02.254Z,20.80
2023-05-22T06:28:30.226Z,20.80
2023-05-22T06:30:59.466Z,20.80
2023-05-22T06:33:27.469Z,20.80
2023-05-22T06:35:55.642Z,20.90
2023-05-22T06:38:29.230Z,20.90
2023-05-22T06:40:57.172Z,20.90
2023-05-22T06:43:25.173Z,20.80
2023-05-22T06:45:55.644Z,20.80
2023-05-22T06:48:25.004Z,20.80
2023-05-22T06:50:52.955Z,20.80
2023-05-22T06:53:20.890Z,20.90
2023-05-22T06:55:51.345Z,20.90
2023-05-22T06:58:22.029Z,21.00
2023-05-22T07:00:52.135Z,21.00
2023-05-22T07:03:20.232Z,21.10
2023-05-22T07:05:49.689Z,21.10
2023-05-22T07:08:19.781Z,21.20
2023-05-22T07:10:47.693Z,21.10
2023-05-22T07:13:18.520Z,21.20
2023-05-22T07:15:46.610Z,21.20
2023-05-22T07:18:15.191Z,21.30
2023-05-22T07:20:43.175Z,21.30
2023-05-22T07:23:12.442Z,21.40
2023-05-22T07:25:44.030Z,21.50
2023-05-22T07:28:14.789Z,21.50
2023-05-22T07:30:42.725Z,21.60
2023-05-22T07:33:11.632Z,21.70
2023-05-22T07:35:39.637Z,21.70
2023-05-22T07:38:07.582Z,21.70
2023-05-22T07:40:45.968Z,21.80
2023-05-22T07:43:15.261Z,21.80
2023-05-22T07:45:44.095Z,21.80
2023-05-22T07:48:12.159Z,21.90
2023-05-22T07:50:44.716Z,22.00
2023-05-22T07:53:12.998Z,22.00
2023-05-22T07:55:41.044Z,22.00
2023-05-22T07:58:10.862Z,22.00
2023-05-22T08:00:41.769Z,22.00
2023-05-22T08:03:09.800Z,22.00
2023-05-22T08:05:37.861Z,22.00
2023-05-22T08:08:06.015Z,22.00
2023-05-22T08:10:52.107Z,22.20
2023-05-22T08:13:27.091Z,22.20
2023-05-22T08:16:00.682Z,22.10
2023-05-22T08:18:29.935Z,22.10
2023-05-22T08:20:59.661Z,22.10
2023-05-22T08:23:27.700Z,22.20
2023-05-22T08:26:04.945Z,22.30
2023-05-22T08:28:36.654Z,22.40
2023-05-22T08:31:04.643Z,22.40
2023-05-22T08:33:32.627Z,22.40
2023-05-22T08:36:00.554Z,22.40
2023-05-22T08:38:28.432Z,22.50
2023-05-22T08:41:07.742Z,22.50
2023-05-22T08:43:37.183Z,22.60
2023-05-22T08:46:08.694Z,22.60
2023-05-22T08:48:41.965Z,22.60
2023-05-22T08:51:14.309Z,22.60
2023-05-22T08:53:52.639Z,22.70
2023-05-22T08:56:21.131Z,22.80
2023-05-22T08:58:51.880Z,22.80
2023-05-22T09:01:29.722Z,22.90
2023-05-22T09:04:01.746Z,22.90
2023-05-22T09:06:30.447Z,23.00
2023-05-22T09:08:58.669Z,23.00
2023-05-22T09:11:26.958Z,23.00
2023-05-22T09:14:08.711Z,23.00
2023-05-22T09:16:45.996Z,23.10
2023-05-22T09:19:14.620Z,23.10
2023-05-22T09:21:55.385Z,23.10
2023-05-22T09:24:39.107Z,23.10
2023-05-22T09:27:08.186Z,23.20
2023-05-22T09:29:49.654Z,23.20
2023-05-22T09:32:20.846Z,23.10
2023-05-22T09:34:48.889Z,23.30
2023-05-22T09:37:17.404Z,23.30
2023-05-22T09:39:46.852Z,23.30
2023-05-22T09:42:17.645Z,23.20
2023-05-22T09:44:51.100Z,23.20
2023-05-22T09:47:22.402Z,23.10
2023-05-22T09:49:50.465Z,23.10
2023-05-22T09:52:20.033Z,23.30
2023-05-22T09:54:58.716Z,23.40
2023-05-22T09:57:27.581Z,23.30
2023-05-22T09:59:58.435Z,23.40
2023-05-22T10:02:33.571Z,23.60
2023-05-22T10:05:03.228Z,23.70
2023-05-22T10:07:36.737Z,23.70
2023-05-22T10:10:12.350Z,23.60
2023-05-22T10:12:48.071Z,23.60
2023-05-22T10:15:20.583Z,23.50
2023-05-22T10:17:49.463Z,23.50
2023-05-22T10:20:17.904Z,23.50
2023-05-22T10:22:48.861Z,23.50
2023-05-22T10:25:19.045Z,23.60
2023-05-22T10:27:47.299Z,23.70
2023-05-22T10:30:24.384Z,23.70
2023-05-22T10:32:58.510Z,23.80
2023-05-22T10:35:49.174Z,24.00
2023-05-22T10:38:44.815Z,24.10
2023-05-22T10:41:16.160Z,24.20
2023-05-22T10:43:44.572Z,24.20
2023-05-22T10:46:14.542Z,24.40
2023-05-22T10:48:46.340Z,24.50
2023-05-22T10:51:19.087Z,24.40
2023-05-22T10:53:54.109Z,24.40
2023-05-22T10:56:25.151Z,24.50
2023-05-22T10:58:59.100Z,24.60
2023-05-22T11:01:28.790Z,24.60
2023-05-22T11:03:58.387Z,24.50
2023-05-22T11:06:34.123Z,24.50
2023-05-22T11:09:35.565Z,24.50
2023-05-22T11:12:25.751Z,24.50
2023-05-22T11:14:57.746Z,24.70
2023-05-22T11:17:31.434Z,24.80
2023-05-22T11:20:05.141Z,24.80
2023-05-22T11:22:38.305Z,24.80
2023-05-22T11:25:09.361Z,24.90
2023-05-22T11:27:43.178Z,24.80
2023-05-22T11:30:11.995Z,24.70
2023-05-22T11:32:44.363Z,24.60
2023-05-22T11:35:17.062Z,24.70
2023-05-22T11:37:45.346Z,24.90
2023-05-22T11:40:17.871Z,24.70
2023-05-22T11:42:49.357Z,24.70
2023-05-22T11:45:18.638Z,24.60
2023-05-22T11:48:02.843Z,24.60
2023-05-22T11:50:41.566Z,24.90
2023-05-22T11:53:16.285Z,25.10
2023-05-22T11:55:44.388Z,25.10
2023-05-22T11:58:12.340Z,25.30
2023-05-22T12:00:46.310Z,25.30
2023-05-22T12:03:17.603Z,25.20
2023-05-22T12:05:47.586Z,25.10
2023-05-22T12:08:15.611Z,25.10
2023-05-22T12:10:48.807Z,25.10
2023-05-22T12:13:22.340Z,25.20
2023-05-22T12:15:55.925Z,25.30
2023-05-22T12:18:25.425Z,25.70
2023-05-22T12:20:55.308Z,25.80
2023-05-22T12:23:24.524Z,25.80
2023-05-22T12:26:02.147Z,25.90
2023-05-22T12:28:32.739Z,26.00
2023-05-22T12:31:00.939Z,25.80
2023-05-22T12:33:30.915Z,25.80
2023-05-22T12:35:59.356Z,25.90
2023-05-22T12:38:28.142Z,26.10
2023-05-22T12:40:56.518Z,26.30
2023-05-22T12:43:26.329Z,26.10
2023-05-22T12:45:55.188Z,26.10
2023-05-22T12:48:23.192Z,26.20
2023-05-22T12:50:52.794Z,26.30
2023-05-22T12:53:20.778Z,26.30
2023-05-22T12:55:52.320Z,26.40
2023-05-22T12:58:20.216Z,26.50
2023-05-22T13:00:48.188Z,26.60
2023-05-22T13:03:19.378Z,26.70
2023-05-22T13:05:50.318Z,26.80
2023-05-22T13:08:20.261Z,26.80
2023-05-22T13:10:51.036Z,26.80
2023-05-22T13:13:19.069Z,26.80
2023-05-22T13:15:47.009Z,26.80
2023-05-22T13:18:15.017Z,26.70
2023-05-22T13:20:45.942Z,26.70
2023-05-22T13:23:13.851Z,26.80
2023-05-22T13:25:45.988Z,26.80
2023-05-22T13:28:13.909Z,26.90
2023-05-22T13:30:45.833Z,26.80
2023-05-22T13:33:13.898Z,26.80
2023-05-22T13:35:44.781Z,26.80
2023-05-22T13:38:15.761Z,26.70
2023-05-22T13:40:46.914Z,26.90
2023-05-22T13:43:16.528Z,27.10
2023-05-22T13:45:44.465Z,27.10
2023-05-22T13:48:12.839Z,27.10
2023-05-22T13:50:40.776Z,27.20
2023-05-22T13:53:08.753Z,27.20
2023-05-22T13:55:37.413Z,27.30
2023-05-22T13:58:06.872Z,27.20
2023-05-22T14:00:34.825Z,27.20
2023-05-22T14:03:05.408Z,27.10
2023-05-22T14:05:33.466Z,27.00
2023-05-22T14:08:01.630Z,27.00
2023-05-22T14:10:29.552Z,27.10
2023-05-22T14:12:57.485Z,27.10
2023-05-22T14:15:26.811Z,27.10
2023-05-22T14:17:54.753Z,27.20
2023-05-22T14:20:22.717Z,27.30
2023-05-22T14:22:57.628Z,27.40
2023-05-22T14:25:26.856Z,27.30
2023-05-22T14:27:54.771Z,27.40
2023-05-22T14:30:22.753Z,27.60
2023-05-22T14:32:52.146Z,27.60
2023-05-22T14:35:23.068Z,27.70
2023-05-22T14:37:56.575Z,27.70
2023-05-22T14:40:27.529Z,27.80
2023-05-22T14:42:55.402Z,27.70
2023-05-22T14:45:23.516Z,27.60
2023-05-22T14:47:52.924Z,27.70
2023-05-22T14:50:22.203Z,27.80
2023-05-22T14:52:50.301Z,27.60
2023-05-22T14:55:18.729Z,27.50
2023-05-22T14:57:46.649Z,27.60
2023-05-22T15:00:15.900Z,27.60
2023-05-22T15:02:43.867Z,27.80
2023-05-22T15:05:13.433Z,27.80
2023-05-22T15:07:44.703Z,27.90
2023-05-22T15:10:16.650Z,27.90
2023-05-22T15:12:47.553Z,27.80
2023-05-22T15:15:15.514Z,27.90
2023-05-22T15:17:43.486Z,27.90
2023-05-22T15:20:13.686Z,27.90
2023-05-22T15:22:41.766Z,27.90
2023-05-22T15:25:15.158Z,27.90
2023-05-22T15:27:43.736Z,28.00
2023-05-22T15:30:12.152Z,28.10
2023-05-22T15:32:40.353Z,28.10
2023-05-22T15:35:09.716Z,28.10
2023-05-22T15:37:39.157Z,28.00
2023-05-22T15:40:09.593Z,27.90
2023-05-22T15:42:37.747Z,27.90
2023-05-22T15:45:06.467Z,27.80
2023-05-22T15:47:34.421Z,27.80
2023-05-22T15:50:02.319Z,27.80
2023-05-22T15:52:30.235Z,27.80
2023-05-22T15:54:59.525Z,28.00
2023-05-22T15:57:28.052Z,28.00
2023-05-22T15:59:56.238Z,28.00
2023-05-22T16:02:24.165Z,28.10
2023-05-22T16:04:52.135Z,28.10
2023-05-22T16:07:20.063Z,28.00
2023-05-22T16:09:50.368Z,28.00
2023-05-22T16:12:19.869Z,28.00
2023-05-22T16:14:47.931Z,28.10
2023-05-22T16:17:18.987Z,28.10
2023-05-22T16:19:51.094Z,28.10
2023-05-22T16:22:30.368Z,28.20
2023-05-22T16:25:04.824Z,28.10
2023-05-22T16:27:34.169Z,28.20
2023-05-22T16:30:02.633Z,28.20
2023-05-22T16:32:30.701Z,28.20
2023-05-22T16:34:58.618Z,28.20
2023-05-22T16:37:26.592Z,28.20
2023-05-22T16:39:54.511Z,28.20
2023-05-22T16:42:22.427Z,28.20
2023-05-22T16:44:51.699Z,28.10
2023-05-22T16:47:19.634Z,28.00
2023-05-22T16:49:53.058Z,28.00
2023-05-22T16:52:23.350Z,28.00
2023-05-22T16:54:54.611Z,27.80
2023-05-22T16:57:22.559Z,27.80
2023-05-22T16:59:52.478Z,27.50
2023-05-22T17:02:23.178Z,27.20
2023-05-22T17:04:56.388Z,26.70
2023-05-22T17:07:24.530Z,26.00
2023-05-22T17:09:52.379Z,25.80
2023-05-22T17:12:20.299Z,25.90
2023-05-22T17:14:48.166Z,25.90
2023-05-22T17:17:17.384Z,25.80
2023-05-22T17:19:45.260Z,25.20
2023-05-22T17:22:16.193Z,25.00
2023-05-22T17:24:44.976Z,25.20
2023-05-22T17:27:31.988Z,25.50
2023-05-22T17:30:07.650Z,25.70
2023-05-22T17:32:39.397Z,26.00
2023-05-22T17:35:07.778Z,26.30
2023-05-22T17:37:35.726Z,26.50
2023-05-22T17:40:04.720Z,26.70
2023-05-22T17:42:32.714Z,26.80
2023-05-22T17:45:02.898Z,26.90
2023-05-22T17:47:30.898Z,27.00
2023-05-22T17:50:00.217Z,27.10
2023-05-22T17:52:28.199Z,27.10
2023-05-22T17:54:59.013Z,27.10
2023-05-22T17:57:33.437Z,27.10
2023-05-22T18:00:09.528Z,27.10
2023-05-22T18:02:44.182Z,27.10
2023-05-22T18:05:13.693Z,27.20
2023-05-22T18:07:44.774Z,27.30
2023-05-22T18:10:13.140Z,27.30
2023-05-22T18:12:41.223Z,27.30
2023-05-22T18:15:11.952Z,27.30
2023-05-22T18:17:39.917Z,27.20
2023-05-22T18:20:09.142Z,27.20
2023-05-22T18:22:39.813Z,27.10
2023-05-22T18:25:11.259Z,27.10
2023-05-22T18:27:45.529Z,27.10
2023-05-22T18:30:14.331Z,27.10
2023-05-22T18:32:42.305Z,27.00
2023-05-22T18:35:10.921Z,26.90
2023-05-22T18:37:43.048Z,26.90
2023-05-22T18:40:11.977Z,26.90
2023-05-22T18:42:40.134Z,26.90
2023-05-22T18:45:12.290Z,26.80
2023-05-22T18:47:43.145Z,26.80
2023-05-22T18:50:13.932Z,26.80
2023-05-22T18:52:46.305Z,26.70
2023-05-22T18:55:14.220Z,26.80
2023-05-22T18:57:42.141Z,26.70
2023-05-22T19:00:11.218Z,26.70
2023-05-22T19:02:39.170Z,26.70
2023-05-22T19:05:07.976Z,26.70
2023-05-22T19:07:39.008Z,26.70
2023-05-22T19:10:09.647Z,26.70
2023-05-22T19:12:37.625Z,26.70
2023-05-22T19:15:06.916Z,26.60
2023-05-22T19:17:35.692Z,26.70
2023-05-22T19:20:08.712Z,26.60
2023-05-22T19:22:39.639Z,26.60
2023-05-22T19:25:21.037Z,26.60
2023-05-22T19:27:49.146Z,26.60
2023-05-22T19:30:18.918Z,26.50
2023-05-22T19:32:49.579Z,26.50
2023-05-22T19:35:17.594Z,26.50
2023-05-22T19:37:46.008Z,26.50
2023-05-22T19:40:13.949Z,26.50
2023-05-22T19:42:43.254Z,26.40
2023-05-22T19:45:13.930Z,26.50
2023-05-22T19:47:47.755Z,26.50
2023-05-22T19:50:15.726Z,26.50
2023-05-22T19:52:52.487Z,26.50
2023-05-22T19:55:23.558Z,26.50
2023-05-22T19:57:53.165Z,26.50
2023-05-22T20:00:49.155Z,26.40
2023-05-22T20:03:17.207Z,26.40
2023-05-22T20:05:45.200Z,26.50
2023-05-22T20:08:14.117Z,26.40
2023-05-22T20:10:42.250Z,26.30
2023-05-22T20:13:14.870Z,26.30
2023-05-22T20:16:12.545Z,26.20
2023-05-22T20:18:41.111Z,26.20
2023-05-22T20:21:18.513Z,26.20
2023-05-22T20:23:55.409Z,26.20
2023-05-22T20:26:31.732Z,26.20
2023-05-22T20:29:01.329Z,26.20
2023-05-22T20:31:31.965Z,26.10
2023-05-22T20:34:01.920Z,26.10
2023-05-22T20:36:33.458Z,26.10
2023-05-22T20:39:11.777Z,26.10
2023-05-22T20:41:50.630Z,26.10
2023-05-22T20:44:23.532Z,26.00
2023-05-22T20:46:57.852Z,25.90
2023-05-22T20:49:29.823Z,25.90
2023-05-22T20:52:24.793Z,25.80
2023-05-22T20:54:52.755Z,25.80
2023-05-22T20:57:22.767Z,25.80
2023-05-22T21:00:01.339Z,25.80
2023-05-22T21:02:29.316Z,25.70
2023-05-22T21:05:10.411Z,25.70
2023-05-22T21:07:38.357Z,25.70
2023-05-22T21:10:07.198Z,25.70
2023-05-22T21:12:35.172Z,25.70
2023-05-22T21:15:08.686Z,25.70
2023-05-22T21:17:40.410Z,25.70
2023-05-22T21:20:09.058Z,25.60
2023-05-22T21:22:40.126Z,25.70
2023-05-22T21:25:23.427Z,25.60
2023-05-22T21:28:15.901Z,25.60
2023-05-22T21:30:45.217Z,25.50
2023-05-22T21:33:23.108Z,25.50
2023-05-22T21:35:51.020Z,25.50
2023-05-22T21:38:24.199Z,25.50
2023-05-22T21:40:52.166Z,25.50
2023-05-22T21:43:25.985Z,25.50
2023-05-22T21:46:01.246Z,25.40
2023-05-22T21:48:29.324Z,25.40
2023-05-22T21:50:57.257Z,25.30
2023-05-22T21:53:25.176Z,25.20
2023-05-22T21:55:53.180Z,25.20
2023-05-22T21:58:24.153Z,25.30
2023-05-22T22:00:55.068Z,25.20
2023-05-22T22:03:24.379Z,25.20
2023-05-22T22:05:52.333Z,25.10
2023-05-22T22:08:20.307Z,25.20
2023-05-22T22:10:48.249Z,25.20
2023-05-22T22:13:22.361Z,25.20
2023-05-22T22:15:50.654Z,25.20
2023-05-22T22:18:24.101Z,25.20
2023-05-22T22:21:02.317Z,25.10
2023-05-22T22:23:36.165Z,25.10
2023-05-22T22:26:07.206Z,25.00
2023-05-22T22:28:35.524Z,24.90
2023-05-22T22:31:08.692Z,24.90
2023-05-22T22:33:39.428Z,24.90
2023-05-22T22:36:11.609Z,24.80
2023-05-22T22:38:45.626Z,24.70
2023-05-22T22:41:27.336Z,24.70
2023-05-22T22:43:55.263Z,24.70
2023-05-22T22:46:29.097Z,24.70
2023-05-22T22:49:12.228Z,24.60
2023-05-22T22:51:49.277Z,24.60
2023-05-22T22:54:27.212Z,24.60
2023-05-22T22:56:55.346Z,24.60
2023-05-22T22:59:23.424Z,24.50
2023-05-22T23:01:54.125Z,24.50
2023-05-22T23:04:22.250Z,24.40
2023-05-22T23:06:51.526Z,24.40
2023-05-22T23:09:20.141Z,24.30
2023-05-22T23:11:48.109Z,24.20
2023-05-22T23:14:16.549Z,24.20
2023-05-22T23:16:44.504Z,24.20
2023-05-22T23:19:13.773Z,24.20
2023-05-22T23:21:46.471Z,24.10
2023-05-22T23:24:15.790Z,24.10
2023-05-22T23:26:43.697Z,24.00
2023-05-22T23:29:11.570Z,23.90
2023-05-22T23:31:40.407Z,23.80
2023-05-22T23:34:11.306Z,23.80
2023-05-22T23:36:39.261Z,23.80
2023-05-22T23:39:07.229Z,23.70
2023-05-22T23:41:39.604Z,23.60
2023-05-22T23:44:11.933Z,23.70
2023-05-22T23:46:43.858Z,23.70
2023-05-22T23:49:11.831Z,23.70
2023-05-22T23:51:48.522Z,23.60
2023-05-22T23:54:16.811Z,23.70
2023-05-22T23:56:46.274Z,23.70
2023-05-22T23:59:16.991Z,23.60
